Time;durP1;ratioP1;P1;durP2;ratioP2;P2;SDS_P1;SDS_P2;PMS_P1;PMS_P2;Temp;Humidity;BMP_temperature;BMP_pressure;BME280_temperature;BME280_humidity;BME280_pressure;Samples;Min_cycle;Max_cycle;Signal;HPM_P1;HPM_P2
2020/12/20 00:00:07;;;;;;;13.77;7.30;;;2.70;99.90;;;;;;5025595;28;20144;-65
2020/12/20 00:02:33;;;;;;;14.60;7.40;;;2.70;99.90;;;;;;5024496;28;20056;-64
2020/12/20 00:05:00;;;;;;;13.87;7.03;;;2.60;99.90;;;;;;5025145;28;20583;-65
2020/12/20 00:07:27;;;;;;;15.17;7.73;;;2.60;99.90;;;;;;5021442;28;20096;-64
2020/12/20 00:09:54;;;;;;;14.07;7.63;;;2.50;99.90;;;;;;5023359;28;20144;-65
2020/12/20 00:12:21;;;;;;;16.77;7.77;;;2.50;99.90;;;;;;5024312;28;20471;-65
2020/12/20 00:14:49;;;;;;;16.07;8.10;;;2.50;99.90;;;;;;5021866;28;20110;-65
2020/12/20 00:17:16;;;;;;;17.47;7.80;;;2.50;99.90;;;;;;5024639;28;20049;-65
2020/12/20 00:19:43;;;;;;;16.23;7.40;;;2.40;99.90;;;;;;5024780;28;20128;-64
2020/12/20 00:22:11;;;;;;;17.43;7.80;;;2.40;99.90;;;;;;5021039;28;20067;-64
2020/12/20 00:24:39;;;;;;;18.60;8.83;;;2.30;99.90;;;;;;5023585;28;20470;-65
2020/12/20 00:27:07;;;;;;;16.93;8.53;;;2.30;99.90;;;;;;5023721;28;20067;-65
2020/12/20 00:29:35;;;;;;;17.00;8.27;;;2.30;99.90;;;;;;5018930;28;20663;-65
2020/12/20 00:32:03;;;;;;;15.37;7.53;;;2.30;99.90;;;;;;5024553;28;20063;-64
2020/12/20 00:34:33;;;;;;;15.53;7.73;;;2.30;99.90;;;;;;5019250;28;20527;-65
2020/12/20 00:37:01;;;;;;;15.70;7.57;;;2.30;99.90;;;;;;5017793;28;20529;-65
2020/12/20 00:39:28;;;;;;;15.50;7.60;;;2.40;99.90;;;;;;5018934;28;20045;-65
2020/12/20 00:41:57;;;;;;;15.00;7.40;;;2.40;99.90;;;;;;5027340;28;20045;-65
2020/12/20 00:44:24;;;;;;;16.77;8.27;;;2.50;99.90;;;;;;5027294;28;20132;-65
2020/12/20 00:46:52;;;;;;;17.20;8.30;;;2.50;99.90;;;;;;5024622;28;20056;-67
2020/12/20 00:49:19;;;;;;;17.43;8.90;;;2.40;99.90;;;;;;5023787;28;20072;-65
2020/12/20 00:51:46;;;;;;;15.73;7.90;;;2.40;99.90;;;;;;5021962;28;20061;-65
2020/12/20 00:54:13;;;;;;;16.43;8.03;;;2.30;99.90;;;;;;5023208;28;20056;-65
2020/12/20 00:56:40;;;;;;;17.73;8.83;;;2.20;99.90;;;;;;5026127;28;20046;-65
2020/12/20 00:59:07;;;;;;;18.57;9.27;;;2.30;99.90;;;;;;5020256;28;20061;-64
2020/12/20 01:01:34;;;;;;;17.03;8.77;;;2.30;99.90;;;;;;5023787;28;20057;-65
2020/12/20 01:04:05;;;;;;;17.37;8.33;;;2.20;99.90;;;;;;5026954;28;20486;-65
2020/12/20 01:06:32;;;;;;;15.20;7.53;;;2.10;99.90;;;;;;5021536;28;20533;-65
2020/12/20 01:09:00;;;;;;;17.60;8.50;;;2.10;99.90;;;;;;5023175;28;20077;-65
2020/12/20 01:11:27;;;;;;;18.30;9.43;;;2.10;99.90;;;;;;5020390;28;20053;-65
2020/12/20 01:13:55;;;;;;;17.53;8.23;;;2.00;99.90;;;;;;5019798;28;20055;-65
2020/12/20 01:16:24;;;;;;;15.67;8.27;;;2.00;99.90;;;;;;5021506;28;21554;-65
2020/12/20 01:18:51;;;;;;;21.00;9.63;;;2.00;99.90;;;;;;5019017;28;20096;-65
2020/12/20 01:21:19;;;;;;;17.97;8.40;;;2.00;99.90;;;;;;5026313;28;20512;-65
2020/12/20 01:23:46;;;;;;;17.87;8.17;;;2.00;99.90;;;;;;5027800;28;20422;-65
2020/12/20 01:26:13;;;;;;;17.80;8.70;;;1.90;99.90;;;;;;5026136;28;20056;-65
2020/12/20 01:28:40;;;;;;;16.80;8.10;;;1.90;99.90;;;;;;5021866;28;20749;-65
2020/12/20 01:31:08;;;;;;;16.73;8.83;;;1.90;99.90;;;;;;5023882;28;20088;-65
2020/12/20 01:33:36;;;;;;;15.90;7.70;;;2.00;99.90;;;;;;5017328;28;20124;-65
2020/12/20 01:36:04;;;;;;;16.30;7.87;;;2.00;99.90;;;;;;5019046;28;20076;-65
2020/12/20 01:38:32;;;;;;;16.13;8.10;;;2.00;99.90;;;;;;5018726;28;20050;-65
2020/12/20 01:40:59;;;;;;;16.37;8.03;;;1.90;99.90;;;;;;5019858;28;20053;-65
2020/12/20 01:43:39;;;;;;;18.57;8.57;;;1.90;99.90;;;;;;5016947;28;20085;-65
2020/12/20 01:46:09;;;;;;;17.17;8.50;;;1.90;99.90;;;;;;5023342;28;20572;-65
2020/12/20 01:48:37;;;;;;;18.70;8.40;;;1.90;99.90;;;;;;5016395;28;20757;-65
2020/12/20 01:51:04;;;;;;;16.70;8.20;;;1.90;99.90;;;;;;5026446;28;20054;-64
2020/12/20 01:53:32;;;;;;;16.43;8.23;;;2.00;99.90;;;;;;5016134;28;20057;-65
2020/12/20 01:56:01;;;;;;;15.27;7.57;;;2.00;99.90;;;;;;5017208;28;20059;-65
2020/12/20 01:58:28;;;;;;;17.50;8.20;;;2.00;99.90;;;;;;5020051;28;20482;-64
2020/12/20 02:00:56;;;;;;;19.40;8.93;;;2.10;99.90;;;;;;5018595;28;20129;-65
2020/12/20 02:03:24;;;;;;;19.13;8.53;;;2.10;99.90;;;;;;5023020;28;20128;-65
2020/12/20 02:05:51;;;;;;;15.83;7.70;;;2.20;99.90;;;;;;5022641;28;20110;-65
2020/12/20 02:08:19;;;;;;;14.83;7.27;;;2.10;99.90;;;;;;5023904;28;20050;-65
2020/12/20 02:11:04;;;;;;;16.40;7.87;;;2.10;99.90;;;;;;5017924;28;20124;-65
2020/12/20 02:13:35;;;;;;;15.80;8.20;;;2.10;99.90;;;;;;5023511;28;20050;-65
2020/12/20 02:16:04;;;;;;;15.90;7.63;;;2.10;99.90;;;;;;5028528;28;20501;-65
2020/12/20 02:18:31;;;;;;;19.30;7.83;;;2.20;99.90;;;;;;5030769;28;20120;-64
2020/12/20 02:20:58;;;;;;;16.20;7.83;;;2.10;99.90;;;;;;5028060;28;20140;-65
2020/12/20 02:23:26;;;;;;;16.23;7.93;;;2.00;99.90;;;;;;5027843;28;20057;-64
2020/12/20 02:25:52;;;;;;;16.60;8.03;;;2.10;99.90;;;;;;5028549;28;20045;-65
2020/12/20 02:28:21;;;;;;;17.10;8.50;;;2.00;99.90;;;;;;5028236;28;20074;-65
2020/12/20 02:30:48;;;;;;;17.30;8.47;;;2.00;99.90;;;;;;5030495;28;20199;-65
2020/12/20 02:33:15;;;;;;;15.13;8.13;;;2.10;99.90;;;;;;5031051;28;20057;-65
2020/12/20 02:35:45;;;;;;;16.97;8.73;;;2.10;99.90;;;;;;5030061;28;20045;-65
2020/12/20 02:38:21;;;;;;;17.13;8.43;;;2.10;99.90;;;;;;5026872;28;20084;-65
2020/12/20 02:40:56;;;;;;;18.58;8.30;;;2.10;99.90;;;;;;5021609;28;20049;-65
2020/12/20 02:43:22;;;;;;;18.67;8.70;;;2.20;99.90;;;;;;5022963;28;20056;-65
2020/12/20 02:45:49;;;;;;;19.27;8.63;;;2.20;99.90;;;;;;5028330;28;20506;-64
2020/12/20 02:48:17;;;;;;;17.53;8.37;;;2.20;99.90;;;;;;5029845;28;20056;-65
2020/12/20 02:50:44;;;;;;;18.60;8.37;;;2.20;99.90;;;;;;5026086;28;20128;-64
2020/12/20 02:53:11;;;;;;;16.23;7.73;;;2.20;99.90;;;;;;5029757;28;20049;-65
2020/12/20 02:55:38;;;;;;;17.47;8.10;;;2.10;99.90;;;;;;5029737;28;20065;-65
2020/12/20 02:58:09;;;;;;;19.73;9.37;;;2.10;99.90;;;;;;5028919;28;20129;-65
2020/12/20 03:00:38;;;;;;;18.13;8.37;;;2.00;99.90;;;;;;5029115;28;20080;-65
2020/12/20 03:03:05;;;;;;;18.83;9.33;;;1.80;99.90;;;;;;5025501;28;20132;-65
2020/12/20 03:05:35;;;;;;;19.60;9.17;;;1.80;99.90;;;;;;5026465;28;20046;-64
2020/12/20 03:08:02;;;;;;;21.03;9.87;;;1.80;99.90;;;;;;5027780;28;20041;-65
2020/12/20 03:10:29;;;;;;;18.07;9.60;;;1.70;99.90;;;;;;5028787;28;20053;-65
2020/12/20 03:12:56;;;;;;;20.23;9.60;;;1.60;99.90;;;;;;5029647;28;20049;-65
2020/12/20 03:15:27;;;;;;;20.27;9.37;;;1.60;99.90;;;;;;5028216;28;20060;-65
2020/12/20 03:17:54;;;;;;;20.63;9.67;;;1.50;99.90;;;;;;5027951;28;20049;-65
2020/12/20 03:20:21;;;;;;;16.97;8.03;;;1.50;99.90;;;;;;5024532;28;20468;-65
2020/12/20 03:22:48;;;;;;;21.17;9.27;;;1.50;99.90;;;;;;5023405;28;20471;-65
2020/12/20 03:25:15;;;;;;;28.83;12.87;;;1.40;99.90;;;;;;5029527;28;20050;-64
2020/12/20 03:27:41;;;;;;;27.23;12.50;;;1.40;99.90;;;;;;5029535;28;20041;-65
2020/12/20 03:30:08;;;;;;;21.50;9.70;;;1.30;99.90;;;;;;5029928;28;20185;-65
2020/12/20 03:32:36;;;;;;;21.57;9.40;;;1.30;99.90;;;;;;5028996;28;20052;-65
2020/12/20 03:35:03;;;;;;;21.03;10.13;;;1.30;99.90;;;;;;5030066;28;20136;-65
2020/12/20 03:37:30;;;;;;;20.07;8.97;;;1.30;99.90;;;;;;5028536;28;20133;-65
2020/12/20 03:39:57;;;;;;;21.03;9.67;;;1.30;99.90;;;;;;5029774;28;20095;-65
2020/12/20 03:42:24;;;;;;;23.17;9.83;;;1.30;99.90;;;;;;5029174;28;20076;-65
2020/12/20 03:44:51;;;;;;;23.73;10.90;;;1.20;99.90;;;;;;5029000;28;20049;-65
2020/12/20 03:47:17;;;;;;;21.90;10.33;;;1.20;99.90;;;;;;5029761;28;20095;-65
2020/12/20 03:49:45;;;;;;;21.00;10.23;;;1.30;99.90;;;;;;5026031;28;20132;-65
2020/12/20 03:52:12;;;;;;;21.77;9.80;;;1.40;99.90;;;;;;5029357;28;20046;-65
2020/12/20 03:54:39;;;;;;;18.67;9.57;;;1.40;99.90;;;;;;5028577;28;20155;-64
2020/12/20 03:57:07;;;;;;;23.60;8.70;;;1.50;99.90;;;;;;5027417;28;20136;-65
2020/12/20 03:59:39;;;;;;;19.00;9.10;;;1.50;99.90;;;;;;5030160;28;20056;-65
2020/12/20 04:02:06;;;;;;;19.40;9.17;;;1.40;99.90;;;;;;5028610;28;20452;-65
2020/12/20 04:04:33;;;;;;;19.40;9.90;;;1.40;99.90;;;;;;5029797;28;20046;-65
2020/12/20 04:07:00;;;;;;;21.00;9.50;;;1.40;99.90;;;;;;5028991;28;20150;-65
2020/12/20 04:09:27;;;;;;;22.50;9.03;;;1.30;99.90;;;;;;5029328;28;20631;-64
2020/12/20 04:11:54;;;;;;;25.47;9.80;;;1.20;99.90;;;;;;5028922;28;20132;-65
2020/12/20 04:14:21;;;;;;;23.47;9.30;;;1.20;99.90;;;;;;5029766;28;20057;-65
2020/12/20 04:16:48;;;;;;;18.37;8.83;;;1.20;99.90;;;;;;5029979;28;20128;-64
2020/12/20 04:19:15;;;;;;;20.73;9.47;;;1.20;99.90;;;;;;5029436;28;20422;-65
2020/12/20 04:21:42;;;;;;;22.53;9.83;;;1.20;99.90;;;;;;5029624;28;20054;-65
2020/12/20 04:24:10;;;;;;;20.67;9.03;;;1.10;99.90;;;;;;5029409;28;20085;-65
2020/12/20 04:26:37;;;;;;;23.00;10.83;;;1.10;99.90;;;;;;5030197;28;20081;-65
2020/12/20 04:29:03;;;;;;;21.93;10.33;;;1.10;99.90;;;;;;5029980;28;20081;-64
2020/12/20 04:31:30;;;;;;;18.97;8.93;;;1.10;99.90;;;;;;5028838;28;20108;-64
2020/12/20 04:33:57;;;;;;;18.13;9.47;;;1.10;99.90;;;;;;5032123;28;20144;-65
2020/12/20 04:36:24;;;;;;;22.90;9.97;;;1.10;99.90;;;;;;5032563;28;20508;-64
2020/12/20 04:38:51;;;;;;;20.60;9.93;;;1.10;99.90;;;;;;5033922;28;20049;-65
2020/12/20 04:41:22;;;;;;;21.27;9.43;;;1.20;99.90;;;;;;5032370;28;20057;-64
2020/12/20 04:43:50;;;;;;;20.77;9.77;;;1.30;99.90;;;;;;5033144;28;20057;-65
2020/12/20 04:46:18;;;;;;;26.20;10.53;;;1.30;99.90;;;;;;5032814;28;20132;-65
2020/12/20 04:48:46;;;;;;;20.77;9.90;;;1.40;99.90;;;;;;5032240;28;20068;-65
2020/12/20 04:51:13;;;;;;;20.60;9.43;;;1.40;99.90;;;;;;5032643;28;20132;-65
2020/12/20 04:53:40;;;;;;;20.67;9.90;;;1.40;99.90;;;;;;5031818;28;20180;-65
2020/12/20 04:56:08;;;;;;;20.83;10.07;;;1.50;99.90;;;;;;5032801;28;20050;-65
2020/12/20 04:58:37;;;;;;;22.63;10.73;;;1.50;99.90;;;;;;5032745;28;20132;-65
2020/12/20 05:01:05;;;;;;;21.40;10.07;;;1.70;99.90;;;;;;5031446;28;20085;-64
2020/12/20 05:03:32;;;;;;;21.93;9.83;;;1.60;99.90;;;;;;5032496;28;20506;-65
2020/12/20 05:05:59;;;;;;;21.60;9.70;;;1.60;99.90;;;;;;5031755;28;20457;-65
2020/12/20 05:08:27;;;;;;;20.63;9.87;;;1.70;99.90;;;;;;5032867;28;20079;-65
2020/12/20 05:10:54;;;;;;;22.80;9.43;;;1.70;99.90;;;;;;5031179;28;20465;-65
2020/12/20 05:13:21;;;;;;;20.57;9.37;;;1.80;99.90;;;;;;5032714;28;20188;-65
2020/12/20 05:15:49;;;;;;;18.80;9.10;;;2.00;99.90;;;;;;5032672;28;20153;-65
2020/12/20 05:18:18;;;;;;;19.43;8.83;;;2.00;99.90;;;;;;5031322;28;20545;-65
2020/12/20 05:20:51;;;;;;;20.37;9.43;;;1.90;99.90;;;;;;5032211;28;20486;-65
2020/12/20 05:23:18;;;;;;;22.87;10.07;;;1.90;99.90;;;;;;5031606;28;20127;-65
2020/12/20 05:25:45;;;;;;;20.73;9.03;;;1.90;99.90;;;;;;5032587;28;20133;-65
2020/12/20 05:28:14;;;;;;;21.40;9.50;;;1.90;99.90;;;;;;5031693;28;20061;-65
2020/12/20 05:30:43;;;;;;;19.50;9.47;;;1.80;99.90;;;;;;5031500;28;20053;-65
2020/12/20 05:33:23;;;;;;;21.17;9.47;;;1.80;99.90;;;;;;5032037;28;20057;-65
2020/12/20 05:35:57;;;;;;;20.13;8.93;;;1.90;99.90;;;;;;5031256;28;20099;-65
2020/12/20 05:38:24;;;;;;;21.73;10.20;;;1.90;99.90;;;;;;5032242;28;20060;-65
2020/12/20 05:40:51;;;;;;;20.23;9.63;;;1.90;99.90;;;;;;5030600;28;20053;-65
2020/12/20 05:43:23;;;;;;;20.47;8.97;;;1.90;99.90;;;;;;5032128;28;20395;-65
2020/12/20 05:45:50;;;;;;;19.90;9.13;;;1.90;99.90;;;;;;5030253;28;20049;-65
2020/12/20 05:48:19;;;;;;;21.17;9.93;;;2.00;99.90;;;;;;5031750;28;20080;-65
2020/12/20 05:50:52;;;;;;;22.23;9.93;;;2.00;99.90;;;;;;5031629;28;20060;-65
2020/12/20 05:53:23;;;;;;;22.57;9.70;;;1.90;99.90;;;;;;5030830;28;20053;-65
2020/12/20 05:55:51;;;;;;;21.30;10.23;;;2.00;99.90;;;;;;5031830;28;20053;-65
2020/12/20 05:58:18;;;;;;;19.17;9.30;;;2.00;99.90;;;;;;5030973;28;20140;-65
2020/12/20 06:00:49;;;;;;;21.70;10.10;;;2.00;99.90;;;;;;5031516;28;20092;-65
2020/12/20 06:03:17;;;;;;;17.90;8.63;;;2.10;99.90;;;;;;5031931;28;20053;-64
2020/12/20 06:05:45;;;;;;;20.33;9.73;;;2.10;99.90;;;;;;5030729;28;20132;-65
2020/12/20 06:08:13;;;;;;;23.40;10.30;;;2.00;99.90;;;;;;5031341;28;20085;-64
2020/12/20 06:10:43;;;;;;;20.67;10.20;;;2.10;99.90;;;;;;5029578;28;20514;-65
2020/12/20 06:13:17;;;;;;;21.47;10.37;;;2.10;99.90;;;;;;5031777;28;20514;-65
2020/12/20 06:15:44;;;;;;;22.53;10.60;;;2.20;99.90;;;;;;5030488;28;20045;-65
2020/12/20 06:18:14;;;;;;;23.30;10.47;;;2.10;99.90;;;;;;5031654;28;20528;-65
2020/12/20 06:21:00;;;;;;;20.00;9.67;;;2.20;99.90;;;;;;5030963;28;20053;-65
2020/12/20 06:23:30;;;;;;;19.77;9.50;;;2.20;99.90;;;;;;5031044;28;20132;-65
2020/12/20 06:25:58;;;;;;;19.47;9.20;;;2.20;99.90;;;;;;5031369;28;20136;-65
2020/12/20 06:28:27;;;;;;;20.63;9.83;;;2.20;99.90;;;;;;5030368;28;20045;-65
2020/12/20 06:30:55;;;;;;;19.87;9.70;;;2.20;99.90;;;;;;5030722;28;20050;-65
2020/12/20 06:33:39;;;;;;;18.57;9.57;;;2.30;99.90;;;;;;5030095;28;20161;-64
2020/12/20 06:36:11;;;;;;;21.23;9.77;;;2.30;99.90;;;;;;5030831;28;20513;-64
2020/12/20 06:38:41;;;;;;;20.80;9.80;;;2.20;99.90;;;;;;5030949;28;20489;-65
2020/12/20 06:41:08;;;;;;;20.17;10.03;;;2.20;99.90;;;;;;5030555;28;20064;-65
2020/12/20 06:43:45;;;;;;;19.47;9.10;;;2.20;99.90;;;;;;5031252;28;20184;-65
2020/12/20 06:46:11;;;;;;;19.95;9.35;;;2.20;99.90;;;;;;5030063;28;20081;-65
2020/12/20 06:48:40;;;;;;;18.60;10.00;;;2.20;99.90;;;;;;5031074;28;20526;-64
2020/12/20 06:51:08;;;;;;;20.27;10.00;;;2.20;99.90;;;;;;5028853;28;20571;-64
2020/12/20 06:53:56;;;;;;;20.83;9.60;;;2.20;99.90;;;;;;5031002;28;20049;-65
2020/12/20 06:56:24;;;;;;;20.97;9.60;;;2.20;99.90;;;;;;5030429;28;20053;-65
2020/12/20 06:58:52;;;;;;;19.37;9.47;;;2.30;99.90;;;;;;5030677;28;20089;-65
2020/12/20 07:01:38;;;;;;;20.13;9.40;;;2.40;99.90;;;;;;5031180;28;20118;-64
2020/12/20 07:04:06;;;;;;;18.90;9.17;;;2.50;99.90;;;;;;5032855;28;20057;-65
2020/12/20 07:06:33;;;;;;;20.17;10.00;;;2.50;99.90;;;;;;5034084;28;20083;-64
2020/12/20 07:09:05;;;;;;;20.43;9.37;;;2.60;99.90;;;;;;5032345;28;20049;-65
2020/12/20 07:11:39;;;;;;;19.27;9.70;;;2.50;99.90;;;;;;5033649;28;20049;-65
2020/12/20 07:14:17;;;;;;;17.27;8.83;;;2.50;99.90;;;;;;5036804;28;20049;-65
2020/12/20 07:16:44;;;;;;;21.47;10.23;;;2.50;99.90;;;;;;5036457;28;20144;-65
2020/12/20 07:19:20;;;;;;;18.43;8.60;;;2.50;99.90;;;;;;5036273;28;20059;-65
2020/12/20 07:22:00;;;;;;;22.77;9.20;;;2.40;99.90;;;;;;5035521;28;20138;-65
2020/12/20 07:24:30;;;;;;;19.33;8.57;;;2.50;99.90;;;;;;5037178;28;20063;-65
2020/12/20 07:27:00;;;;;;;18.47;9.27;;;2.40;99.90;;;;;;5035377;28;20057;-65
2020/12/20 07:29:27;;;;;;;17.40;9.13;;;2.50;99.90;;;;;;5036640;28;20107;-65
2020/12/20 07:31:56;;;;;;;18.43;8.90;;;2.40;99.90;;;;;;5032960;28;20413;-64
2020/12/20 07:34:23;;;;;;;17.40;9.03;;;2.40;99.90;;;;;;5035343;28;20534;-65
2020/12/20 07:36:50;;;;;;;19.33;9.20;;;2.40;99.90;;;;;;5032468;28;20452;-65
2020/12/20 07:39:17;;;;;;;20.07;9.93;;;2.50;99.90;;;;;;5016438;28;20558;-65
2020/12/20 07:41:45;;;;;;;18.40;9.17;;;2.40;99.90;;;;;;5014732;28;20130;-65
2020/12/20 07:44:12;;;;;;;16.70;8.67;;;2.40;99.90;;;;;;5016327;28;20054;-64
2020/12/20 07:46:40;;;;;;;21.17;9.23;;;2.40;99.90;;;;;;5027972;28;20050;-65
2020/12/20 07:49:08;;;;;;;20.23;9.83;;;2.40;99.90;;;;;;5011091;28;20045;-65
2020/12/20 07:51:36;;;;;;;20.33;9.77;;;2.40;99.90;;;;;;5009484;28;20536;-65
2020/12/20 07:54:07;;;;;;;19.73;9.57;;;2.40;99.90;;;;;;5010345;28;20054;-65
2020/12/20 07:56:35;;;;;;;19.30;9.37;;;2.50;99.90;;;;;;5009224;28;20712;-65
2020/12/20 07:59:06;;;;;;;19.87;9.77;;;2.50;99.90;;;;;;5010285;28;20132;-64
2020/12/20 08:01:33;;;;;;;20.43;10.17;;;2.50;99.90;;;;;;5008525;28;20089;-64
2020/12/20 08:04:07;;;;;;;18.63;8.77;;;2.50;99.90;;;;;;5009949;28;20128;-65
2020/12/20 08:06:35;;;;;;;19.43;9.30;;;2.50;99.90;;;;;;5009447;28;20050;-65
2020/12/20 08:09:04;;;;;;;20.10;9.50;;;2.50;99.90;;;;;;5024114;28;20493;-65
2020/12/20 08:11:32;;;;;;;18.43;9.37;;;2.50;99.90;;;;;;5033270;28;20049;-65
2020/12/20 08:14:02;;;;;;;19.60;9.23;;;2.50;99.90;;;;;;5032954;28;20539;-65
2020/12/20 08:16:31;;;;;;;19.53;9.07;;;2.50;99.90;;;;;;5033886;28;20490;-65
2020/12/20 08:19:01;;;;;;;20.03;9.67;;;2.70;99.90;;;;;;5032494;28;20144;-64
2020/12/20 08:21:39;;;;;;;17.67;9.17;;;2.70;99.90;;;;;;5032770;28;20132;-65
2020/12/20 08:24:08;;;;;;;18.10;9.00;;;2.60;99.90;;;;;;5032683;28;20092;-65
2020/12/20 08:26:35;;;;;;;18.00;8.87;;;2.60;99.90;;;;;;5033010;28;20565;-65
2020/12/20 08:29:03;;;;;;;18.40;9.90;;;2.80;99.90;;;;;;5034237;28;20121;-65
2020/12/20 08:31:32;;;;;;;19.87;9.33;;;2.80;99.90;;;;;;5033217;28;20510;-65
2020/12/20 08:33:59;;;;;;;18.70;9.07;;;2.80;99.90;;;;;;5032985;28;20522;-64
2020/12/20 08:36:28;;;;;;;18.27;8.97;;;2.80;99.90;;;;;;5032184;28;20108;-65
2020/12/20 08:38:55;;;;;;;19.57;9.30;;;2.80;99.90;;;;;;5033286;28;20768;-65
2020/12/20 08:41:27;;;;;;;20.53;10.20;;;3.00;99.90;;;;;;5026995;28;20136;-65
2020/12/20 08:44:08;;;;;;;20.80;11.03;;;3.00;99.90;;;;;;5013548;28;20049;-65
2020/12/20 08:46:37;;;;;;;16.00;7.93;;;2.90;99.90;;;;;;5013084;28;20129;-65
2020/12/20 08:49:12;;;;;;;19.30;9.17;;;3.10;99.90;;;;;;5012387;28;20085;-65
2020/12/20 08:51:38;;;;;;;18.13;9.00;;;3.20;99.90;;;;;;5012907;28;20089;-65
2020/12/20 08:54:05;;;;;;;19.20;9.17;;;3.20;99.90;;;;;;5012619;28;20103;-65
2020/12/20 08:56:32;;;;;;;17.93;9.63;;;3.10;99.90;;;;;;5013292;28;20104;-65
2020/12/20 08:59:00;;;;;;;18.13;9.53;;;3.10;99.90;;;;;;5011573;28;20532;-65
2020/12/20 09:01:40;;;;;;;20.10;10.23;;;3.10;99.90;;;;;;5012916;28;20150;-65
2020/12/20 09:04:11;;;;;;;20.60;10.30;;;3.20;99.90;;;;;;5013358;28;20056;-65
2020/12/20 09:06:38;;;;;;;18.53;10.00;;;3.30;99.90;;;;;;5012452;28;20052;-65
2020/12/20 09:09:13;;;;;;;17.17;9.07;;;3.40;99.90;;;;;;5026036;28;20075;-65
2020/12/20 09:11:43;;;;;;;17.50;8.33;;;3.50;99.90;;;;;;5032104;28;20061;-65
2020/12/20 09:14:10;;;;;;;18.03;9.33;;;3.40;99.90;;;;;;5032887;28;20045;-65
2020/12/20 09:16:42;;;;;;;18.73;9.63;;;3.40;99.90;;;;;;5032311;28;20057;-65
2020/12/20 09:19:11;;;;;;;17.53;8.73;;;3.30;99.90;;;;;;5033076;28;20489;-65
2020/12/20 09:21:38;;;;;;;18.23;8.83;;;3.30;99.90;;;;;;5032444;28;20573;-65
2020/12/20 09:24:07;;;;;;;18.57;9.60;;;3.30;99.90;;;;;;5031485;28;20049;-65
2020/12/20 09:26:37;;;;;;;18.70;9.43;;;3.30;99.90;;;;;;5033405;28;20136;-65
2020/12/20 09:29:07;;;;;;;18.03;9.13;;;3.40;99.90;;;;;;5031384;28;20045;-65
2020/12/20 09:31:34;;;;;;;17.87;9.20;;;3.60;99.90;;;;;;5031665;28;20465;-65
2020/12/20 09:34:02;;;;;;;21.00;9.67;;;3.40;99.90;;;;;;5031722;28;20096;-65
2020/12/20 09:36:33;;;;;;;16.80;8.13;;;3.40;99.90;;;;;;5031910;28;20524;-65
2020/12/20 09:39:04;;;;;;;18.63;8.97;;;3.50;99.90;;;;;;5032037;28;20064;-65
2020/12/20 09:41:32;;;;;;;18.70;8.70;;;3.40;99.90;;;;;;5021255;28;20045;-68
2020/12/20 09:44:03;;;;;;;16.70;8.70;;;3.40;99.90;;;;;;5031331;28;20449;-67
2020/12/20 09:46:31;;;;;;;17.20;8.67;;;3.50;99.90;;;;;;5014657;28;20046;-67
2020/12/20 09:48:59;;;;;;;19.63;10.13;;;3.60;99.90;;;;;;5027410;28;20061;-68
2020/12/20 09:51:26;;;;;;;16.63;8.77;;;3.60;99.90;;;;;;5010297;28;20577;-67
2020/12/20 09:53:54;;;;;;;17.43;9.30;;;3.50;99.90;;;;;;5021092;28;20136;-68
2020/12/20 09:56:21;;;;;;;16.80;8.83;;;3.50;99.90;;;;;;5016795;28;20089;-67
2020/12/20 09:58:48;;;;;;;16.77;9.07;;;3.60;99.90;;;;;;5026866;28;20530;-67
2020/12/20 10:01:23;;;;;;;17.63;8.20;;;3.60;99.90;;;;;;5016294;28;20045;-65
2020/12/20 10:03:51;;;;;;;17.90;8.53;;;3.60;99.90;;;;;;5020569;28;20058;-68
2020/12/20 10:06:21;;;;;;;17.57;8.37;;;3.70;99.90;;;;;;5018254;28;20050;-67
2020/12/20 10:08:48;;;;;;;17.87;8.73;;;3.70;99.90;;;;;;5019584;28;20057;-65
2020/12/20 10:11:19;;;;;;;17.53;8.97;;;3.70;99.90;;;;;;5016123;28;20434;-65
2020/12/20 10:13:46;;;;;;;21.70;9.20;;;3.70;99.90;;;;;;5021816;28;20422;-68
2020/12/20 10:16:18;;;;;;;16.23;8.30;;;3.80;99.90;;;;;;5023466;28;20076;-69
2020/12/20 10:18:48;;;;;;;15.97;8.30;;;3.90;99.90;;;;;;5015684;28;20502;-65
2020/12/20 10:21:21;;;;;;;16.87;8.67;;;3.80;99.90;;;;;;5025259;28;20119;-68
2020/12/20 10:23:48;;;;;;;19.20;8.63;;;3.80;99.90;;;;;;5022297;28;20100;-68
2020/12/20 10:26:15;;;;;;;17.57;9.43;;;3.90;99.90;;;;;;5024025;28;20050;-70
2020/12/20 10:28:44;;;;;;;16.40;8.33;;;3.80;99.90;;;;;;5014023;28;20085;-68
2020/12/20 10:31:18;;;;;;;17.67;8.53;;;3.80;99.90;;;;;;5026729;28;20148;-67
2020/12/20 10:33:45;;;;;;;17.10;8.43;;;3.90;99.90;;;;;;5010162;28;20049;-64
2020/12/20 10:36:14;;;;;;;18.07;8.27;;;3.90;99.90;;;;;;5023092;28;20049;-65
2020/12/20 10:38:45;;;;;;;17.70;8.73;;;3.90;99.90;;;;;;5030075;28;20060;-67
2020/12/20 10:41:12;;;;;;;16.73;9.00;;;3.90;99.90;;;;;;5014595;28;20054;-68
2020/12/20 10:43:39;;;;;;;18.80;9.40;;;3.90;99.90;;;;;;5022246;28;20046;-65
2020/12/20 10:46:07;;;;;;;18.93;9.03;;;4.10;99.90;;;;;;5025306;28;20046;-65
2020/12/20 10:48:33;;;;;;;16.00;8.17;;;4.20;99.90;;;;;;5022804;28;20506;-65
2020/12/20 10:51:00;;;;;;;17.37;8.40;;;4.70;99.90;;;;;;5020627;28;20108;-65
2020/12/20 10:53:27;;;;;;;17.40;8.07;;;5.40;99.90;;;;;;5028505;28;20085;-65
2020/12/20 10:55:55;;;;;;;17.30;9.10;;;5.20;99.90;;;;;;5005051;28;20050;-65
2020/12/20 10:58:22;;;;;;;16.57;8.23;;;5.30;99.90;;;;;;5006094;28;20054;-65
2020/12/20 11:00:49;;;;;;;17.67;8.57;;;5.60;99.90;;;;;;5006473;28;20141;-64
2020/12/20 11:03:16;;;;;;;16.37;8.77;;;5.40;99.90;;;;;;5006005;28;20109;-65
2020/12/20 11:05:43;;;;;;;15.90;8.80;;;5.30;99.90;;;;;;5013989;28;20108;-64
2020/12/20 11:08:10;;;;;;;16.13;7.97;;;5.20;99.90;;;;;;5023469;28;20057;-65
2020/12/20 11:10:37;;;;;;;16.43;9.00;;;5.00;99.90;;;;;;5026014;28;20477;-65
2020/12/20 11:13:03;;;;;;;15.97;7.90;;;4.90;99.90;;;;;;5032623;28;20460;-67
2020/12/20 11:15:30;;;;;;;16.43;8.37;;;5.10;99.90;;;;;;5030845;28;20497;-68
2020/12/20 11:17:57;;;;;;;16.67;8.67;;;5.20;99.90;;;;;;5029872;28;20112;-68
2020/12/20 11:20:25;;;;;;;17.13;8.70;;;5.20;99.90;;;;;;5027954;28;20136;-67
2020/12/20 11:22:52;;;;;;;16.87;8.87;;;5.70;99.90;;;;;;5029909;28;20068;-67
2020/12/20 11:25:19;;;;;;;15.02;7.95;;;6.40;99.90;;;;;;5029349;28;20620;-67
2020/12/20 11:27:46;;;;;;;15.23;7.95;;;6.30;99.90;;;;;;5029056;28;20060;-67
2020/12/20 11:30:12;;;;;;;14.67;8.17;;;6.20;99.90;;;;;;5029243;28;20136;-68
2020/12/20 11:32:39;;;;;;;17.60;8.65;;;6.20;99.90;;;;;;5028730;28;20073;-67
2020/12/20 11:35:06;;;;;;;16.20;8.68;;;6.50;99.90;;;;;;5028782;28;20057;-68
2020/12/20 11:37:34;;;;;;;15.95;8.48;;;6.80;99.90;;;;;;5028049;28;20096;-68
2020/12/20 11:40:01;;;;;;;19.35;8.88;;;6.90;99.90;;;;;;5029656;28;20080;-68
2020/12/20 11:42:29;;;;;;;17.80;7.97;;;6.70;99.90;;;;;;5026124;28;20050;-68
2020/12/20 11:44:56;;;;;;;17.00;9.07;;;6.50;99.90;;;;;;5021237;28;20104;-67
2020/12/20 11:47:22;;;;;;;18.25;7.95;;;6.60;99.90;;;;;;5017719;28;20045;-67
2020/12/20 11:49:49;;;;;;;14.90;8.05;;;6.50;99.90;;;;;;5014149;28;20045;-68
2020/12/20 11:52:17;;;;;;;14.48;8.18;;;6.40;99.90;;;;;;5010400;28;20781;-67
2020/12/20 11:54:45;;;;;;;15.05;8.13;;;6.20;99.90;;;;;;5009716;28;20050;-68
2020/12/20 11:57:12;;;;;;;14.73;7.57;;;6.20;99.90;;;;;;5010605;28;20050;-67
2020/12/20 11:59:39;;;;;;;13.52;7.55;;;6.30;99.90;;;;;;5027739;28;20132;-67
2020/12/20 12:02:05;;;;;;;15.70;7.85;;;6.40;99.90;;;;;;5028264;28;20050;-68
2020/12/20 12:04:32;;;;;;;17.38;8.82;;;6.30;99.90;;;;;;5029755;28;20141;-66
2020/12/20 12:06:59;;;;;;;15.15;8.10;;;5.90;99.90;;;;;;5023595;28;20089;-68
2020/12/20 12:09:26;;;;;;;17.25;7.97;;;6.10;99.90;;;;;;5014439;28;20065;-68
2020/12/20 12:11:54;;;;;;;14.33;7.77;;;6.10;99.90;;;;;;5017460;28;20050;-67
2020/12/20 12:14:20;;;;;;;16.50;8.32;;;6.10;99.90;;;;;;5018586;28;20107;-67
2020/12/20 12:16:47;;;;;;;17.23;7.63;;;6.00;99.90;;;;;;5009953;28;20058;-67
2020/12/20 12:19:15;;;;;;;14.25;7.05;;;6.10;99.90;;;;;;5013739;28;20495;-68
2020/12/20 12:21:42;;;;;;;15.80;7.90;;;5.90;99.90;;;;;;5018901;28;20046;-68
2020/12/20 12:24:09;;;;;;;16.52;8.00;;;6.00;99.90;;;;;;5018023;28;20157;-68
2020/12/20 12:26:36;;;;;;;19.10;8.82;;;6.10;99.90;;;;;;5019866;28;20056;-68
2020/12/20 12:29:04;;;;;;;16.88;8.20;;;6.30;99.90;;;;;;5016541;28;20061;-68
2020/12/20 12:31:31;;;;;;;15.50;8.27;;;6.80;99.90;;;;;;5020452;28;20421;-69
2020/12/20 12:33:58;;;;;;;16.60;8.18;;;7.40;99.90;;;;;;5023782;28;20519;-67
2020/12/20 12:36:28;;;;;;;13.88;7.30;;;7.80;99.90;;;;;;5020842;28;20153;-66
2020/12/20 12:38:59;;;;;;;13.75;7.03;;;8.20;99.90;;;;;;5020968;28;20069;-66
2020/12/20 12:41:27;;;;;;;14.93;8.02;;;8.10;99.90;;;;;;5016832;28;20103;-65
2020/12/20 12:43:55;;;;;;;16.15;7.65;;;7.60;99.90;;;;;;5022748;28;20050;-64
2020/12/20 12:46:23;;;;;;;14.77;7.75;;;7.30;99.90;;;;;;5020402;28;20049;-65
2020/12/20 12:48:51;;;;;;;16.85;7.63;;;7.10;99.90;;;;;;5021506;28;20105;-65
2020/12/20 12:51:21;;;;;;;13.98;7.78;;;6.70;99.90;;;;;;5020829;28;20065;-65